Capitol Logistics 1123


UBBB
Heydar Aliyev International Airport
Baku, AZ
EBLG
Liège Airport
Liege, BE

Activity Log

Date Flight Route Aircraft Duration
12/15/2019 CPX1123 Not Available B763 5h 40m

Route Details

Aircraft Information
Primary: Boeing 767-300BDSF
Backup: Not Available
Route Data
Distance: 1945nm
Sched. Duration: 4h 50m
Avg. Duration: 5h 40m (+90m)
Times Flown: 1
Recm'd Route: Not Available
Planned Altitude: 34,000ft
Origin Wx: UBBB 061030Z 33034G48KT 9999 SCT021 BKN100 11/06 Q1022 R88/CLRD// NOSIG
Dest. Wx: EBLG 061020Z 19012KT CAVOK 19/02 Q1019 NOSIG
Notes:

Financial History
Total Freight: 99,996lbs
Average Load: 99,996lbs/flt
Fuel Used: 42,374lbs
Avg. Fuel Used: 42,374lbs/flt
Fuel Expense: $33,899
Avg. Fuel Expense: $33,899
Avg. Fuel Cost: $0.80/lbs
Total Gross Income: $362,985
Pilot Pay: $259
Total Expenses: $39,254
Total Revenue: $288,364
Average Revenue: $362,985.47